sensor_id;sensor_type;location;lat;lon;timestamp;P1;durP1;ratioP1;P2;durP2;ratioP2
28774;SDS011;15926;51.348;6.596;2022-07-29T00:00:45;2.22;;;1.08;;
28774;SDS011;15926;51.348;6.596;2022-07-29T00:03:12;3.17;;;1.20;;
28774;SDS011;15926;51.348;6.596;2022-07-29T00:05:38;3.30;;;0.80;;
28774;SDS011;15926;51.348;6.596;2022-07-29T00:08:04;4.32;;;1.50;;
28774;SDS011;15926;51.348;6.596;2022-07-29T00:10:31;6.30;;;1.27;;
28774;SDS011;15926;51.348;6.596;2022-07-29T00:12:57;3.83;;;1.38;;
28774;SDS011;15926;51.348;6.596;2022-07-29T00:15:23;1.77;;;1.27;;
28774;SDS011;15926;51.348;6.596;2022-07-29T00:17:49;2.10;;;1.05;;
28774;SDS011;15926;51.348;6.596;2022-07-29T00:20:15;2.92;;;1.30;;
28774;SDS011;15926;51.348;6.596;2022-07-29T00:22:41;2.78;;;1.10;;
28774;SDS011;15926;51.348;6.596;2022-07-29T00:25:07;3.05;;;1.02;;
28774;SDS011;15926;51.348;6.596;2022-07-29T00:27:34;3.25;;;0.90;;
28774;SDS011;15926;51.348;6.596;2022-07-29T00:30:01;2.35;;;1.08;;
28774;SDS011;15926;51.348;6.596;2022-07-29T00:32:27;1.20;;;0.80;;
28774;SDS011;15926;51.348;6.596;2022-07-29T00:34:53;3.97;;;0.90;;
28774;SDS011;15926;51.348;6.596;2022-07-29T00:37:38;1.65;;;0.95;;
28774;SDS011;15926;51.348;6.596;2022-07-29T00:40:04;3.70;;;1.30;;
28774;SDS011;15926;51.348;6.596;2022-07-29T00:42:30;1.77;;;1.15;;
28774;SDS011;15926;51.348;6.596;2022-07-29T00:44:56;5.20;;;1.10;;
28774;SDS011;15926;51.348;6.596;2022-07-29T00:47:22;5.90;;;1.05;;
28774;SDS011;15926;51.348;6.596;2022-07-29T00:49:48;2.58;;;1.25;;
28774;SDS011;15926;51.348;6.596;2022-07-29T00:52:14;5.38;;;1.10;;
28774;SDS011;15926;51.348;6.596;2022-07-29T00:54:40;3.42;;;1.90;;
28774;SDS011;15926;51.348;6.596;2022-07-29T00:57:07;6.88;;;1.70;;
28774;SDS011;15926;51.348;6.596;2022-07-29T00:59:33;1.30;;;0.90;;
28774;SDS011;15926;51.348;6.596;2022-07-29T01:01:59;3.63;;;1.00;;
28774;SDS011;15926;51.348;6.596;2022-07-29T01:04:25;5.35;;;1.10;;
28774;SDS011;15926;51.348;6.596;2022-07-29T01:06:52;2.05;;;1.20;;
28774;SDS011;15926;51.348;6.596;2022-07-29T01:09:19;4.32;;;1.10;;
28774;SDS011;15926;51.348;6.596;2022-07-29T01:11:45;5.03;;;1.13;;
28774;SDS011;15926;51.348;6.596;2022-07-29T01:14:13;2.90;;;1.08;;
28774;SDS011;15926;51.348;6.596;2022-07-29T01:16:51;1.95;;;1.10;;
28774;SDS011;15926;51.348;6.596;2022-07-29T01:22:07;3.25;;;1.00;;
28774;SDS011;15926;51.348;6.596;2022-07-29T01:24:45;3.78;;;0.98;;
28774;SDS011;15926;51.348;6.596;2022-07-29T01:29:57;2.70;;;1.23;;
28774;SDS011;15926;51.348;6.596;2022-07-29T01:32:25;3.60;;;1.08;;
28774;SDS011;15926;51.348;6.596;2022-07-29T01:34:58;3.50;;;1.00;;
28774;SDS011;15926;51.348;6.596;2022-07-29T01:37:28;4.15;;;0.90;;
28774;SDS011;15926;51.348;6.596;2022-07-29T01:39:56;2.13;;;1.10;;
28774;SDS011;15926;51.348;6.596;2022-07-29T01:45:12;4.38;;;1.00;;
28774;SDS011;15926;51.348;6.596;2022-07-29T01:47:41;3.45;;;1.10;;
28774;SDS011;15926;51.348;6.596;2022-07-29T01:50:10;3.75;;;1.00;;
28774;SDS011;15926;51.348;6.596;2022-07-29T01:52:48;3.58;;;1.75;;
28774;SDS011;15926;51.348;6.596;2022-07-29T01:55:15;5.47;;;1.00;;
28774;SDS011;15926;51.348;6.596;2022-07-29T01:57:43;4.32;;;1.05;;
28774;SDS011;15926;51.348;6.596;2022-07-29T02:00:10;4.57;;;1.00;;
28774;SDS011;15926;51.348;6.596;2022-07-29T02:02:37;5.25;;;1.15;;
28774;SDS011;15926;51.348;6.596;2022-07-29T02:05:03;4.32;;;0.80;;
28774;SDS011;15926;51.348;6.596;2022-07-29T02:07:31;2.85;;;0.77;;
28774;SDS011;15926;51.348;6.596;2022-07-29T02:09:58;6.70;;;1.00;;
28774;SDS011;15926;51.348;6.596;2022-07-29T02:12:26;2.22;;;0.75;;
28774;SDS011;15926;51.348;6.596;2022-07-29T02:14:53;2.60;;;0.90;;
28774;SDS011;15926;51.348;6.596;2022-07-29T02:17:24;1.73;;;1.10;;
28774;SDS011;15926;51.348;6.596;2022-07-29T02:19:51;3.35;;;0.98;;
28774;SDS011;15926;51.348;6.596;2022-07-29T02:22:18;3.90;;;0.85;;
28774;SDS011;15926;51.348;6.596;2022-07-29T02:24:45;2.50;;;0.88;;
28774;SDS011;15926;51.348;6.596;2022-07-29T02:27:12;1.40;;;1.00;;
28774;SDS011;15926;51.348;6.596;2022-07-29T02:29:39;3.15;;;1.00;;
28774;SDS011;15926;51.348;6.596;2022-07-29T02:32:05;2.72;;;1.08;;
28774;SDS011;15926;51.348;6.596;2022-07-29T02:34:33;1.10;;;0.80;;
28774;SDS011;15926;51.348;6.596;2022-07-29T02:37:00;5.80;;;1.10;;
28774;SDS011;15926;51.348;6.596;2022-07-29T02:39:26;1.52;;;0.73;;
28774;SDS011;15926;51.348;6.596;2022-07-29T02:42:03;5.15;;;1.20;;
28774;SDS011;15926;51.348;6.596;2022-07-29T02:44:31;8.98;;;1.25;;
28774;SDS011;15926;51.348;6.596;2022-07-29T02:47:19;1.23;;;0.60;;
28774;SDS011;15926;51.348;6.596;2022-07-29T02:52:13;3.85;;;0.70;;
28774;SDS011;15926;51.348;6.596;2022-07-29T02:54:44;2.00;;;0.80;;
28774;SDS011;15926;51.348;6.596;2022-07-29T02:57:19;3.00;;;1.33;;
28774;SDS011;15926;51.348;6.596;2022-07-29T02:59:46;1.40;;;0.85;;
28774;SDS011;15926;51.348;6.596;2022-07-29T03:02:13;2.63;;;0.70;;
28774;SDS011;15926;51.348;6.596;2022-07-29T03:04:40;2.15;;;0.73;;
28774;SDS011;15926;51.348;6.596;2022-07-29T03:07:07;4.70;;;0.90;;
28774;SDS011;15926;51.348;6.596;2022-07-29T03:09:34;3.08;;;0.80;;
28774;SDS011;15926;51.348;6.596;2022-07-29T03:12:02;2.75;;;0.80;;
28774;SDS011;15926;51.348;6.596;2022-07-29T03:14:29;2.10;;;0.70;;
28774;SDS011;15926;51.348;6.596;2022-07-29T03:16:56;2.97;;;0.85;;
28774;SDS011;15926;51.348;6.596;2022-07-29T03:19:22;6.93;;;1.08;;
28774;SDS011;15926;51.348;6.596;2022-07-29T03:21:48;0.63;;;0.60;;
28774;SDS011;15926;51.348;6.596;2022-07-29T03:24:27;2.08;;;0.93;;
28774;SDS011;15926;51.348;6.596;2022-07-29T03:29:19;3.40;;;0.90;;
28774;SDS011;15926;51.348;6.596;2022-07-29T03:31:45;7.88;;;0.98;;
28774;SDS011;15926;51.348;6.596;2022-07-29T03:34:11;3.38;;;1.52;;
28774;SDS011;15926;51.348;6.596;2022-07-29T03:36:37;2.38;;;0.80;;
28774;SDS011;15926;51.348;6.596;2022-07-29T03:39:03;4.97;;;1.15;;
28774;SDS011;15926;51.348;6.596;2022-07-29T03:41:30;3.65;;;0.88;;
28774;SDS011;15926;51.348;6.596;2022-07-29T03:43:57;2.17;;;0.85;;
28774;SDS011;15926;51.348;6.596;2022-07-29T03:46:24;2.45;;;0.98;;
28774;SDS011;15926;51.348;6.596;2022-07-29T03:48:53;3.42;;;0.68;;
28774;SDS011;15926;51.348;6.596;2022-07-29T03:51:21;3.53;;;0.77;;
28774;SDS011;15926;51.348;6.596;2022-07-29T03:53:47;1.52;;;1.08;;
28774;SDS011;15926;51.348;6.596;2022-07-29T03:56:15;4.05;;;0.88;;
28774;SDS011;15926;51.348;6.596;2022-07-29T03:58:41;1.02;;;0.73;;
28774;SDS011;15926;51.348;6.596;2022-07-29T04:01:07;2.33;;;0.90;;
28774;SDS011;15926;51.348;6.596;2022-07-29T04:03:34;4.15;;;1.40;;
28774;SDS011;15926;51.348;6.596;2022-07-29T04:06:04;3.75;;;1.20;;
28774;SDS011;15926;51.348;6.596;2022-07-29T04:08:31;2.53;;;1.08;;
28774;SDS011;15926;51.348;6.596;2022-07-29T04:10:57;4.35;;;1.02;;
28774;SDS011;15926;51.348;6.596;2022-07-29T04:13:23;2.47;;;1.10;;
28774;SDS011;15926;51.348;6.596;2022-07-29T04:15:49;3.25;;;1.50;;
28774;SDS011;15926;51.348;6.596;2022-07-29T04:18:15;3.13;;;1.85;;
28774;SDS011;15926;51.348;6.596;2022-07-29T04:20:42;3.60;;;1.13;;
28774;SDS011;15926;51.348;6.596;2022-07-29T04:23:08;5.40;;;1.42;;
28774;SDS011;15926;51.348;6.596;2022-07-29T04:25:36;3.47;;;1.27;;
28774;SDS011;15926;51.348;6.596;2022-07-29T04:28:02;3.35;;;1.45;;
28774;SDS011;15926;51.348;6.596;2022-07-29T04:30:29;6.10;;;1.40;;
28774;SDS011;15926;51.348;6.596;2022-07-29T04:32:55;3.22;;;1.80;;
28774;SDS011;15926;51.348;6.596;2022-07-29T04:35:21;2.42;;;1.60;;
28774;SDS011;15926;51.348;6.596;2022-07-29T04:37:47;5.18;;;1.77;;
28774;SDS011;15926;51.348;6.596;2022-07-29T04:40:13;3.83;;;1.63;;
28774;SDS011;15926;51.348;6.596;2022-07-29T04:42:39;3.22;;;1.95;;
28774;SDS011;15926;51.348;6.596;2022-07-29T04:45:05;6.20;;;1.50;;
28774;SDS011;15926;51.348;6.596;2022-07-29T04:47:31;3.50;;;1.50;;
28774;SDS011;15926;51.348;6.596;2022-07-29T04:49:57;3.10;;;2.00;;
28774;SDS011;15926;51.348;6.596;2022-07-29T04:52:23;4.38;;;1.73;;
28774;SDS011;15926;51.348;6.596;2022-07-29T04:54:50;4.45;;;2.38;;
28774;SDS011;15926;51.348;6.596;2022-07-29T04:57:16;2.88;;;2.20;;
28774;SDS011;15926;51.348;6.596;2022-07-29T04:59:42;5.45;;;2.10;;
28774;SDS011;15926;51.348;6.596;2022-07-29T05:02:08;2.53;;;1.88;;
28774;SDS011;15926;51.348;6.596;2022-07-29T05:04:34;3.13;;;2.03;;
28774;SDS011;15926;51.348;6.596;2022-07-29T05:07:00;4.72;;;2.20;;
28774;SDS011;15926;51.348;6.596;2022-07-29T05:09:26;6.40;;;2.83;;
28774;SDS011;15926;51.348;6.596;2022-07-29T05:11:53;2.45;;;2.03;;
28774;SDS011;15926;51.348;6.596;2022-07-29T05:14:19;5.68;;;2.40;;
28774;SDS011;15926;51.348;6.596;2022-07-29T05:16:46;3.30;;;2.30;;
28774;SDS011;15926;51.348;6.596;2022-07-29T05:19:15;3.67;;;2.10;;
28774;SDS011;15926;51.348;6.596;2022-07-29T05:21:42;4.40;;;2.00;;
28774;SDS011;15926;51.348;6.596;2022-07-29T05:24:08;3.65;;;2.67;;
28774;SDS011;15926;51.348;6.596;2022-07-29T05:26:34;8.80;;;2.53;;
28774;SDS011;15926;51.348;6.596;2022-07-29T05:29:00;3.75;;;2.45;;
28774;SDS011;15926;51.348;6.596;2022-07-29T05:31:26;6.78;;;3.42;;
28774;SDS011;15926;51.348;6.596;2022-07-29T05:33:52;5.82;;;3.08;;
28774;SDS011;15926;51.348;6.596;2022-07-29T05:36:19;4.68;;;2.35;;
28774;SDS011;15926;51.348;6.596;2022-07-29T05:38:45;2.65;;;2.05;;
28774;SDS011;15926;51.348;6.596;2022-07-29T05:41:11;3.47;;;2.40;;
28774;SDS011;15926;51.348;6.596;2022-07-29T05:43:37;4.20;;;2.67;;
28774;SDS011;15926;51.348;6.596;2022-07-29T05:46:03;4.55;;;2.95;;
28774;SDS011;15926;51.348;6.596;2022-07-29T05:48:29;5.95;;;3.30;;
28774;SDS011;15926;51.348;6.596;2022-07-29T05:50:55;4.85;;;2.30;;
28774;SDS011;15926;51.348;6.596;2022-07-29T05:53:21;7.97;;;2.75;;
28774;SDS011;15926;51.348;6.596;2022-07-29T05:55:48;9.68;;;3.40;;
28774;SDS011;15926;51.348;6.596;2022-07-29T05:58:15;4.40;;;3.25;;
28774;SDS011;15926;51.348;6.596;2022-07-29T06:00:41;4.97;;;3.20;;
28774;SDS011;15926;51.348;6.596;2022-07-29T06:03:07;4.20;;;2.85;;
28774;SDS011;15926;51.348;6.596;2022-07-29T06:05:33;11.20;;;3.35;;
28774;SDS011;15926;51.348;6.596;2022-07-29T06:08:00;2.35;;;2.15;;
28774;SDS011;15926;51.348;6.596;2022-07-29T06:10:26;3.38;;;2.67;;
28774;SDS011;15926;51.348;6.596;2022-07-29T06:12:52;3.08;;;2.53;;
28774;SDS011;15926;51.348;6.596;2022-07-29T06:15:18;3.22;;;2.20;;
28774;SDS011;15926;51.348;6.596;2022-07-29T06:17:44;5.25;;;2.60;;
28774;SDS011;15926;51.348;6.596;2022-07-29T06:20:10;2.97;;;2.50;;
28774;SDS011;15926;51.348;6.596;2022-07-29T06:22:36;7.72;;;2.72;;
28774;SDS011;15926;51.348;6.596;2022-07-29T06:25:02;6.35;;;2.47;;
28774;SDS011;15926;51.348;6.596;2022-07-29T06:27:28;4.18;;;2.58;;
28774;SDS011;15926;51.348;6.596;2022-07-29T06:29:55;5.95;;;2.97;;
28774;SDS011;15926;51.348;6.596;2022-07-29T06:32:21;4.45;;;3.03;;
28774;SDS011;15926;51.348;6.596;2022-07-29T06:34:47;5.63;;;2.78;;
28774;SDS011;15926;51.348;6.596;2022-07-29T06:37:14;6.85;;;3.40;;
28774;SDS011;15926;51.348;6.596;2022-07-29T06:39:40;5.53;;;3.22;;
28774;SDS011;15926;51.348;6.596;2022-07-29T06:42:06;5.20;;;3.35;;
28774;SDS011;15926;51.348;6.596;2022-07-29T06:44:32;7.38;;;3.50;;
28774;SDS011;15926;51.348;6.596;2022-07-29T06:46:59;5.57;;;2.90;;
28774;SDS011;15926;51.348;6.596;2022-07-29T06:49:25;5.97;;;2.63;;
28774;SDS011;15926;51.348;6.596;2022-07-29T06:51:52;5.63;;;3.60;;
28774;SDS011;15926;51.348;6.596;2022-07-29T06:54:18;8.20;;;3.03;;
28774;SDS011;15926;51.348;6.596;2022-07-29T06:56:45;9.15;;;3.40;;
28774;SDS011;15926;51.348;6.596;2022-07-29T06:59:11;10.93;;;4.00;;
28774;SDS011;15926;51.348;6.596;2022-07-29T07:01:38;7.65;;;3.53;;
28774;SDS011;15926;51.348;6.596;2022-07-29T07:04:05;11.32;;;4.13;;
28774;SDS011;15926;51.348;6.596;2022-07-29T07:06:31;4.85;;;4.00;;
28774;SDS011;15926;51.348;6.596;2022-07-29T07:08:57;11.20;;;4.13;;
28774;SDS011;15926;51.348;6.596;2022-07-29T07:11:23;7.78;;;3.97;;
28774;SDS011;15926;51.348;6.596;2022-07-29T07:13:49;10.45;;;4.35;;
28774;SDS011;15926;51.348;6.596;2022-07-29T07:16:15;5.15;;;3.80;;
28774;SDS011;15926;51.348;6.596;2022-07-29T07:18:41;6.22;;;4.13;;
28774;SDS011;15926;51.348;6.596;2022-07-29T07:21:09;11.02;;;4.75;;
28774;SDS011;15926;51.348;6.596;2022-07-29T07:23:35;7.88;;;4.28;;
28774;SDS011;15926;51.348;6.596;2022-07-29T07:26:02;11.50;;;4.80;;
28774;SDS011;15926;51.348;6.596;2022-07-29T07:28:30;7.53;;;4.78;;
28774;SDS011;15926;51.348;6.596;2022-07-29T07:30:59;7.00;;;4.95;;
28774;SDS011;15926;51.348;6.596;2022-07-29T07:33:25;5.70;;;4.50;;
28774;SDS011;15926;51.348;6.596;2022-07-29T07:35:51;5.40;;;4.90;;
28774;SDS011;15926;51.348;6.596;2022-07-29T07:38:17;9.95;;;5.00;;
28774;SDS011;15926;51.348;6.596;2022-07-29T07:40:43;10.52;;;4.53;;
28774;SDS011;15926;51.348;6.596;2022-07-29T07:43:11;6.32;;;4.20;;
28774;SDS011;15926;51.348;6.596;2022-07-29T07:45:37;8.82;;;4.50;;
28774;SDS011;15926;51.348;6.596;2022-07-29T07:48:05;5.60;;;4.30;;
28774;SDS011;15926;51.348;6.596;2022-07-29T07:50:31;6.28;;;4.68;;
28774;SDS011;15926;51.348;6.596;2022-07-29T07:52:57;5.82;;;4.40;;
28774;SDS011;15926;51.348;6.596;2022-07-29T07:55:23;6.13;;;4.50;;
28774;SDS011;15926;51.348;6.596;2022-07-29T07:57:49;12.43;;;5.30;;
28774;SDS011;15926;51.348;6.596;2022-07-29T08:00:15;7.95;;;4.47;;
28774;SDS011;15926;51.348;6.596;2022-07-29T08:02:42;7.07;;;5.28;;
28774;SDS011;15926;51.348;6.596;2022-07-29T08:05:10;6.18;;;4.47;;
28774;SDS011;15926;51.348;6.596;2022-07-29T08:07:37;6.43;;;4.85;;
28774;SDS011;15926;51.348;6.596;2022-07-29T08:10:04;5.65;;;5.00;;
28774;SDS011;15926;51.348;6.596;2022-07-29T08:12:30;8.55;;;5.38;;
28774;SDS011;15926;51.348;6.596;2022-07-29T08:14:56;5.32;;;4.50;;
28774;SDS011;15926;51.348;6.596;2022-07-29T08:17:22;7.82;;;4.90;;
28774;SDS011;15926;51.348;6.596;2022-07-29T08:19:48;8.88;;;4.20;;
28774;SDS011;15926;51.348;6.596;2022-07-29T08:22:14;5.47;;;4.20;;
28774;SDS011;15926;51.348;6.596;2022-07-29T08:24:40;7.25;;;4.93;;
28774;SDS011;15926;51.348;6.596;2022-07-29T08:27:17;7.47;;;4.50;;
28774;SDS011;15926;51.348;6.596;2022-07-29T08:29:43;5.88;;;4.65;;
28774;SDS011;15926;51.348;6.596;2022-07-29T08:32:09;12.95;;;4.22;;
28774;SDS011;15926;51.348;6.596;2022-07-29T08:34:35;5.72;;;4.50;;
28774;SDS011;15926;51.348;6.596;2022-07-29T08:37:01;6.97;;;4.25;;
28774;SDS011;15926;51.348;6.596;2022-07-29T08:39:27;7.15;;;4.22;;
28774;SDS011;15926;51.348;6.596;2022-07-29T08:41:53;7.30;;;4.78;;
28774;SDS011;15926;51.348;6.596;2022-07-29T08:44:23;7.53;;;4.45;;
28774;SDS011;15926;51.348;6.596;2022-07-29T08:46:52;8.00;;;4.57;;
28774;SDS011;15926;51.348;6.596;2022-07-29T08:49:18;5.40;;;4.68;;
28774;SDS011;15926;51.348;6.596;2022-07-29T08:51:44;6.90;;;4.22;;
28774;SDS011;15926;51.348;6.596;2022-07-29T08:54:11;5.38;;;4.30;;
28774;SDS011;15926;51.348;6.596;2022-07-29T08:56:42;9.70;;;4.63;;
28774;SDS011;15926;51.348;6.596;2022-07-29T08:59:14;8.60;;;4.45;;
28774;SDS011;15926;51.348;6.596;2022-07-29T09:02:04;9.68;;;5.15;;
28774;SDS011;15926;51.348;6.596;2022-07-29T09:04:43;9.40;;;5.10;;
28774;SDS011;15926;51.348;6.596;2022-07-29T09:07:16;10.95;;;4.68;;
28774;SDS011;15926;51.348;6.596;2022-07-29T09:09:43;10.82;;;4.90;;
28774;SDS011;15926;51.348;6.596;2022-07-29T09:12:10;7.55;;;5.03;;
28774;SDS011;15926;51.348;6.596;2022-07-29T09:14:37;7.35;;;4.72;;
28774;SDS011;15926;51.348;6.596;2022-07-29T09:17:03;12.75;;;5.57;;
28774;SDS011;15926;51.348;6.596;2022-07-29T09:19:31;8.52;;;5.10;;
28774;SDS011;15926;51.348;6.596;2022-07-29T09:21:59;5.82;;;5.32;;
28774;SDS011;15926;51.348;6.596;2022-07-29T09:24:44;6.88;;;4.93;;
28774;SDS011;15926;51.348;6.596;2022-07-29T09:27:19;6.22;;;5.13;;
28774;SDS011;15926;51.348;6.596;2022-07-29T09:29:59;6.55;;;4.55;;
28774;SDS011;15926;51.348;6.596;2022-07-29T09:32:26;6.15;;;5.00;;
28774;SDS011;15926;51.348;6.596;2022-07-29T09:37:30;6.97;;;4.85;;
28774;SDS011;15926;51.348;6.596;2022-07-29T09:40:18;11.10;;;5.45;;
28774;SDS011;15926;51.348;6.596;2022-07-29T09:42:42;5.57;;;5.05;;
28774;SDS011;15926;51.348;6.596;2022-07-29T09:45:34;7.22;;;4.95;;
28774;SDS011;15926;51.348;6.596;2022-07-29T09:48:15;9.90;;;5.32;;
28774;SDS011;15926;51.348;6.596;2022-07-29T09:50:45;8.45;;;5.30;;
28774;SDS011;15926;51.348;6.596;2022-07-29T09:56:39;5.63;;;5.03;;
28774;SDS011;15926;51.348;6.596;2022-07-29T09:59:14;6.90;;;4.82;;
28774;SDS011;15926;51.348;6.596;2022-07-29T10:01:41;7.32;;;5.30;;
28774;SDS011;15926;51.348;6.596;2022-07-29T10:04:38;10.07;;;5.35;;
28774;SDS011;15926;51.348;6.596;2022-07-29T10:07:04;7.10;;;4.82;;
28774;SDS011;15926;51.348;6.596;2022-07-29T10:09:30;7.95;;;5.35;;
28774;SDS011;15926;51.348;6.596;2022-07-29T10:12:03;5.20;;;4.40;;
28774;SDS011;15926;51.348;6.596;2022-07-29T10:14:30;7.07;;;5.18;;
28774;SDS011;15926;51.348;6.596;2022-07-29T10:16:57;7.82;;;4.90;;
28774;SDS011;15926;51.348;6.596;2022-07-29T10:19:25;10.70;;;5.60;;
28774;SDS011;15926;51.348;6.596;2022-07-29T10:21:51;7.60;;;4.72;;
28774;SDS011;15926;51.348;6.596;2022-07-29T10:24:18;7.20;;;4.78;;
28774;SDS011;15926;51.348;6.596;2022-07-29T10:30:16;9.32;;;5.45;;
28774;SDS011;15926;51.348;6.596;2022-07-29T10:46:18;8.73;;;3.45;;
28774;SDS011;15926;51.348;6.596;2022-07-29T10:57:14;7.15;;;4.47;;
28774;SDS011;15926;51.348;6.596;2022-07-29T10:59:45;12.23;;;4.55;;
28774;SDS011;15926;51.348;6.596;2022-07-29T11:02:40;11.07;;;5.13;;
28774;SDS011;15926;51.348;6.596;2022-07-29T11:04:58;10.07;;;5.40;;
28774;SDS011;15926;51.348;6.596;2022-07-29T11:07:25;11.65;;;5.70;;
28774;SDS011;15926;51.348;6.596;2022-07-29T11:15:12;10.35;;;4.82;;
28774;SDS011;15926;51.348;6.596;2022-07-29T11:20:31;11.50;;;5.07;;
28774;SDS011;15926;51.348;6.596;2022-07-29T11:23:43;10.30;;;4.30;;
28774;SDS011;15926;51.348;6.596;2022-07-29T11:31:34;5.97;;;3.33;;
28774;SDS011;15926;51.348;6.596;2022-07-29T11:34:15;10.30;;;3.15;;
28774;SDS011;15926;51.348;6.596;2022-07-29T11:39:28;4.93;;;3.00;;
28774;SDS011;15926;51.348;6.596;2022-07-29T11:42:19;6.05;;;2.72;;
28774;SDS011;15926;51.348;6.596;2022-07-29T11:44:56;4.15;;;2.53;;
28774;SDS011;15926;51.348;6.596;2022-07-29T11:47:23;3.25;;;2.35;;
28774;SDS011;15926;51.348;6.596;2022-07-29T11:49:49;3.25;;;2.38;;
28774;SDS011;15926;51.348;6.596;2022-07-29T11:52:16;3.70;;;2.58;;
28774;SDS011;15926;51.348;6.596;2022-07-29T11:54:42;3.15;;;2.55;;
28774;SDS011;15926;51.348;6.596;2022-07-29T11:57:09;5.82;;;2.35;;
28774;SDS011;15926;51.348;6.596;2022-07-29T11:59:39;3.72;;;2.80;;
28774;SDS011;15926;51.348;6.596;2022-07-29T12:02:06;2.80;;;1.70;;
28774;SDS011;15926;51.348;6.596;2022-07-29T12:10:03;4.57;;;2.53;;
28774;SDS011;15926;51.348;6.596;2022-07-29T12:12:29;3.80;;;2.78;;
28774;SDS011;15926;51.348;6.596;2022-07-29T12:15:10;2.22;;;1.77;;
28774;SDS011;15926;51.348;6.596;2022-07-29T12:17:36;5.80;;;2.33;;
28774;SDS011;15926;51.348;6.596;2022-07-29T12:20:13;4.13;;;2.70;;
28774;SDS011;15926;51.348;6.596;2022-07-29T12:22:42;2.88;;;2.47;;
28774;SDS011;15926;51.348;6.596;2022-07-29T12:25:10;4.00;;;2.10;;
28774;SDS011;15926;51.348;6.596;2022-07-29T12:30:36;3.63;;;2.35;;
28774;SDS011;15926;51.348;6.596;2022-07-29T12:35:39;10.88;;;2.25;;
28774;SDS011;15926;51.348;6.596;2022-07-29T12:38:05;3.45;;;2.05;;
28774;SDS011;15926;51.348;6.596;2022-07-29T12:40:32;3.63;;;2.17;;
28774;SDS011;15926;51.348;6.596;2022-07-29T12:46:43;2.53;;;2.15;;
28774;SDS011;15926;51.348;6.596;2022-07-29T12:48:56;3.72;;;2.03;;
28774;SDS011;15926;51.348;6.596;2022-07-29T12:54:09;5.80;;;2.90;;
28774;SDS011;15926;51.348;6.596;2022-07-29T12:56:39;7.53;;;3.30;;
28774;SDS011;15926;51.348;6.596;2022-07-29T12:59:13;3.75;;;2.83;;
28774;SDS011;15926;51.348;6.596;2022-07-29T13:01:39;3.30;;;2.40;;
28774;SDS011;15926;51.348;6.596;2022-07-29T13:04:05;3.55;;;2.35;;
28774;SDS011;15926;51.348;6.596;2022-07-29T13:06:36;3.47;;;2.28;;
28774;SDS011;15926;51.348;6.596;2022-07-29T13:09:04;2.22;;;1.88;;
28774;SDS011;15926;51.348;6.596;2022-07-29T13:11:32;2.92;;;2.10;;
28774;SDS011;15926;51.348;6.596;2022-07-29T13:13:58;4.38;;;2.63;;
28774;SDS011;15926;51.348;6.596;2022-07-29T13:16:25;6.13;;;2.45;;
28774;SDS011;15926;51.348;6.596;2022-07-29T13:19:02;5.80;;;2.17;;
28774;SDS011;15926;51.348;6.596;2022-07-29T13:21:28;2.83;;;2.10;;
28774;SDS011;15926;51.348;6.596;2022-07-29T13:23:55;4.60;;;2.35;;
28774;SDS011;15926;51.348;6.596;2022-07-29T13:26:21;2.05;;;1.80;;
28774;SDS011;15926;51.348;6.596;2022-07-29T13:28:47;7.15;;;2.13;;
28774;SDS011;15926;51.348;6.596;2022-07-29T13:31:13;3.80;;;1.83;;
28774;SDS011;15926;51.348;6.596;2022-07-29T13:33:39;3.70;;;1.70;;
28774;SDS011;15926;51.348;6.596;2022-07-29T13:36:05;3.63;;;2.08;;
28774;SDS011;15926;51.348;6.596;2022-07-29T13:38:31;3.10;;;1.90;;
28774;SDS011;15926;51.348;6.596;2022-07-29T13:40:58;2.00;;;1.73;;
28774;SDS011;15926;51.348;6.596;2022-07-29T13:43:25;4.47;;;1.65;;
28774;SDS011;15926;51.348;6.596;2022-07-29T13:45:51;3.55;;;1.42;;
28774;SDS011;15926;51.348;6.596;2022-07-29T13:48:17;2.83;;;1.15;;
28774;SDS011;15926;51.348;6.596;2022-07-29T13:50:43;7.70;;;1.35;;
28774;SDS011;15926;51.348;6.596;2022-07-29T13:53:10;3.53;;;1.45;;
28774;SDS011;15926;51.348;6.596;2022-07-29T13:55:36;3.85;;;1.20;;
28774;SDS011;15926;51.348;6.596;2022-07-29T13:58:02;4.85;;;1.20;;
28774;SDS011;15926;51.348;6.596;2022-07-29T14:00:28;2.75;;;1.50;;
28774;SDS011;15926;51.348;6.596;2022-07-29T14:02:54;2.97;;;1.25;;
28774;SDS011;15926;51.348;6.596;2022-07-29T14:05:21;5.03;;;1.40;;
28774;SDS011;15926;51.348;6.596;2022-07-29T14:07:47;5.78;;;1.63;;
28774;SDS011;15926;51.348;6.596;2022-07-29T14:10:13;2.72;;;1.10;;
28774;SDS011;15926;51.348;6.596;2022-07-29T14:12:39;6.35;;;1.30;;
28774;SDS011;15926;51.348;6.596;2022-07-29T14:15:07;2.88;;;1.30;;
28774;SDS011;15926;51.348;6.596;2022-07-29T14:17:33;3.92;;;1.33;;
28774;SDS011;15926;51.348;6.596;2022-07-29T14:20:00;3.00;;;1.27;;
28774;SDS011;15926;51.348;6.596;2022-07-29T14:22:26;4.22;;;1.63;;
28774;SDS011;15926;51.348;6.596;2022-07-29T14:24:52;1.90;;;1.20;;
28774;SDS011;15926;51.348;6.596;2022-07-29T14:27:18;4.35;;;1.60;;
28774;SDS011;15926;51.348;6.596;2022-07-29T14:29:44;2.13;;;1.33;;
28774;SDS011;15926;51.348;6.596;2022-07-29T14:32:10;4.75;;;1.85;;
28774;SDS011;15926;51.348;6.596;2022-07-29T14:34:36;2.85;;;1.67;;
28774;SDS011;15926;51.348;6.596;2022-07-29T14:37:03;5.00;;;2.05;;
28774;SDS011;15926;51.348;6.596;2022-07-29T14:39:33;3.10;;;1.40;;
28774;SDS011;15926;51.348;6.596;2022-07-29T14:42:00;3.10;;;1.40;;
28774;SDS011;15926;51.348;6.596;2022-07-29T14:44:26;4.85;;;1.50;;
28774;SDS011;15926;51.348;6.596;2022-07-29T14:46:56;3.88;;;1.40;;
28774;SDS011;15926;51.348;6.596;2022-07-29T14:49:22;2.67;;;1.83;;
28774;SDS011;15926;51.348;6.596;2022-07-29T14:51:48;3.45;;;1.60;;
28774;SDS011;15926;51.348;6.596;2022-07-29T14:54:15;2.25;;;1.55;;
28774;SDS011;15926;51.348;6.596;2022-07-29T14:56:41;2.72;;;1.52;;
28774;SDS011;15926;51.348;6.596;2022-07-29T14:59:07;5.13;;;1.50;;
28774;SDS011;15926;51.348;6.596;2022-07-29T15:01:33;1.40;;;1.30;;
28774;SDS011;15926;51.348;6.596;2022-07-29T15:03:59;5.15;;;1.75;;
28774;SDS011;15926;51.348;6.596;2022-07-29T15:06:25;4.22;;;1.70;;
28774;SDS011;15926;51.348;6.596;2022-07-29T15:08:51;6.05;;;1.70;;
28774;SDS011;15926;51.348;6.596;2022-07-29T15:11:17;2.65;;;1.40;;
28774;SDS011;15926;51.348;6.596;2022-07-29T15:13:43;5.65;;;2.15;;
28774;SDS011;15926;51.348;6.596;2022-07-29T15:16:09;3.33;;;2.08;;
28774;SDS011;15926;51.348;6.596;2022-07-29T15:18:35;4.25;;;2.40;;
28774;SDS011;15926;51.348;6.596;2022-07-29T15:21:03;2.40;;;1.50;;
28774;SDS011;15926;51.348;6.596;2022-07-29T15:23:31;2.20;;;1.73;;
28774;SDS011;15926;51.348;6.596;2022-07-29T15:25:57;2.50;;;2.00;;
28774;SDS011;15926;51.348;6.596;2022-07-29T15:28:23;4.15;;;2.00;;
28774;SDS011;15926;51.348;6.596;2022-07-29T15:30:49;2.90;;;1.90;;
28774;SDS011;15926;51.348;6.596;2022-07-29T15:33:15;5.70;;;2.13;;
28774;SDS011;15926;51.348;6.596;2022-07-29T15:35:42;2.60;;;1.90;;
28774;SDS011;15926;51.348;6.596;2022-07-29T15:38:08;5.18;;;1.60;;
28774;SDS011;15926;51.348;6.596;2022-07-29T15:40:36;3.22;;;1.88;;
28774;SDS011;15926;51.348;6.596;2022-07-29T15:43:05;3.70;;;2.20;;
28774;SDS011;15926;51.348;6.596;2022-07-29T15:45:34;4.15;;;2.45;;
28774;SDS011;15926;51.348;6.596;2022-07-29T15:48:01;2.55;;;2.00;;
28774;SDS011;15926;51.348;6.596;2022-07-29T15:50:27;2.97;;;1.63;;
28774;SDS011;15926;51.348;6.596;2022-07-29T15:52:53;2.28;;;2.08;;
28774;SDS011;15926;51.348;6.596;2022-07-29T15:55:19;4.25;;;1.75;;
28774;SDS011;15926;51.348;6.596;2022-07-29T15:57:45;4.18;;;1.80;;
28774;SDS011;15926;51.348;6.596;2022-07-29T16:00:11;4.85;;;1.92;;
28774;SDS011;15926;51.348;6.596;2022-07-29T16:02:37;2.92;;;1.83;;
28774;SDS011;15926;51.348;6.596;2022-07-29T16:05:04;3.72;;;1.52;;
28774;SDS011;15926;51.348;6.596;2022-07-29T16:07:30;3.20;;;1.40;;
28774;SDS011;15926;51.348;6.596;2022-07-29T16:09:56;3.63;;;1.20;;